Time;durP1;ratioP1;P1;durP2;ratioP2;P2;SDS_P1;SDS_P2;PMS_P1;PMS_P2;Temp;Humidity;BMP_temperature;BMP_pressure;BME280_temperature;BME280_humidity;BME280_pressure;Samples;Min_cycle;Max_cycle;Signal;HPM_P1;HPM_P2
2023/09/18 00:04:23;;;;;;;0.07;0.07;;;;;;;-145.06;100.00;56801.56;10385416;28;20040;-69
2023/09/18 00:09:23;;;;;;;0.10;0.10;;;;;;;-145.06;100.00;56777.25;10387130;28;20021;-68
2023/09/18 00:14:23;;;;;;;0.10;0.10;;;;;;;-145.06;100.00;56720.50;10398541;28;20033;-68
2023/09/18 00:19:24;;;;;;;0.00;0.00;;;;;;;-145.06;100.00;56661.75;10388167;28;20021;-68
2023/09/18 00:24:25;;;;;;;0.10;0.10;;;;;;;-145.06;100.00;56684.03;10391718;28;20041;-68
2023/09/18 00:29:25;;;;;;;0.10;0.10;;;;;;;-145.06;100.00;56635.41;10389843;28;20037;-68
2023/09/18 00:34:26;;;;;;;0.10;0.10;;;;;;;-145.06;100.00;56643.50;10389233;28;20393;-68
2023/09/18 00:39:26;;;;;;;0.10;0.10;;;;;;;-145.06;100.00;56615.13;10390931;28;20040;-69
2023/09/18 00:44:27;;;;;;;0.10;0.10;;;;;;;-145.06;100.00;56629.31;10374645;28;20029;-68
2023/09/18 00:49:27;;;;;;;0.10;0.10;;;;;;;-145.06;100.00;56621.22;10381317;28;20037;-69
2023/09/18 00:54:28;;;;;;;0.00;0.00;;;;;;;-145.06;100.00;56590.81;10389552;28;20170;-68
2023/09/18 00:59:28;;;;;;;0.10;0.10;;;;;;;-145.06;100.00;56627.28;10381279;28;20037;-69
2023/09/18 01:04:30;;;;;;;0.00;0.00;;;;;;;-145.06;100.00;56623.25;10388122;28;20028;-68
2023/09/18 01:09:34;;;;;;;0.00;0.00;;;;;;;-145.06;100.00;56576.63;10385143;28;20140;-68
2023/09/18 01:15:06;;;;;;;0.10;0.10;;;;;;;-145.06;100.00;56564.47;10379646;28;20296;-68
2023/09/18 01:20:12;;;;;;;0.00;0.00;;;;;;;-145.06;100.00;56562.44;10385178;28;20057;-68
2023/09/18 01:25:12;;;;;;;0.10;0.10;;;;;;;-145.06;100.00;56562.44;10390319;28;20060;-69
2023/09/18 01:30:13;;;;;;;0.10;0.10;;;;;;;-145.06;100.00;56544.19;10375529;28;20515;-69
2023/09/18 01:35:15;;;;;;;0.00;0.00;;;;;;;-145.06;100.00;56554.34;10393183;28;20052;-68
2023/09/18 01:40:16;;;;;;;0.00;0.00;;;;;;;-145.06;100.00;56521.91;10386472;28;20025;-69
2023/09/18 01:45:16;;;;;;;0.00;0.00;;;;;;;-145.06;100.00;56562.44;10381614;28;20013;-69
2023/09/18 01:50:17;;;;;;;0.10;0.10;;;;;;;-145.06;100.00;56491.50;10383518;28;20091;-68
2023/09/18 01:55:17;;;;;;;0.10;0.10;;;;;;;-145.06;100.00;56521.91;10392220;28;20319;-68
2023/09/18 02:00:18;;;;;;;0.10;0.10;;;;;;;-145.06;100.00;56501.66;10391632;28;20032;-68
2023/09/18 02:05:18;;;;;;;0.10;0.10;;;;;;;-145.06;100.00;56487.47;10383221;28;20013;-69
2023/09/18 02:10:19;;;;;;;0.10;0.10;;;;;;;-145.06;100.00;56457.06;10382888;28;20523;-69
2023/09/18 02:15:19;;;;;;;0.10;0.10;;;;;;;-145.06;100.00;56530.00;10397303;28;20024;-68
2023/09/18 02:20:19;;;;;;;0.08;0.08;;;;;;;-145.06;100.00;56517.84;10387311;28;20022;-69
2023/09/18 02:25:20;;;;;;;0.10;0.10;;;;;;;-145.06;100.00;56503.69;10387276;28;20101;-69
2023/09/18 02:30:20;;;;;;;0.10;0.10;;;;;;;-145.06;100.00;56521.91;10398446;28;20025;-69
2023/09/18 02:35:20;;;;;;;0.10;0.10;;;;;;;-145.06;100.00;56572.56;10390750;28;20018;-69
2023/09/18 02:40:20;;;;;;;0.08;0.08;;;;;;;-145.06;100.00;56534.06;10392848;28;20031;-69
2023/09/18 02:45:21;;;;;;;0.10;0.10;;;;;;;-145.06;100.00;56536.09;10390043;28;20024;-69
2023/09/18 02:50:21;;;;;;;0.10;0.10;;;;;;;-145.06;100.00;56499.63;10389442;28;20052;-69
2023/09/18 02:55:21;;;;;;;0.10;0.10;;;;;;;-145.06;100.00;56521.91;10387412;28;20260;-69
2023/09/18 03:00:21;;;;;;;0.08;0.08;;;;;;;-145.06;100.00;56517.84;10379064;28;20052;-69
2023/09/18 03:05:22;;;;;;;0.10;0.10;;;;;;;-145.06;100.00;56517.84;10403869;28;20062;-69
2023/09/18 03:10:22;;;;;;;0.08;0.08;;;;;;;-145.06;100.00;56513.81;10389392;28;20027;-69
2023/09/18 03:15:22;;;;;;;0.10;0.10;;;;;;;-145.06;100.00;56586.75;10398057;28;20018;-69
2023/09/18 03:20:24;;;;;;;0.00;0.00;;;;;;;-145.06;100.00;56576.63;10382414;28;20022;-69
2023/09/18 03:25:25;;;;;;;0.00;0.00;;;;;;;-145.06;100.00;56584.72;10392314;28;20455;-68
2023/09/18 03:30:26;;;;;;;0.00;0.00;;;;;;;-145.06;100.00;56586.75;10384853;28;20099;-69
2023/09/18 03:35:29;;;;;;;0.00;0.00;;;;;;;-145.06;100.00;56574.59;10388555;28;20020;-69
2023/09/18 03:40:29;;;;;;;0.00;0.00;;;;;;;-145.06;100.00;56602.97;10385328;28;20022;-68
2023/09/18 03:45:29;;;;;;;0.10;0.10;;;;;;;-145.06;100.00;56542.19;10389960;28;20970;-68
2023/09/18 03:50:30;;;;;;;0.10;0.10;;;;;;;-145.06;100.00;56580.69;10384914;28;20030;-68
2023/09/18 03:55:30;;;;;;;0.10;0.10;;;;;;;-145.06;100.00;56515.84;10383271;28;20268;-68
2023/09/18 04:00:30;;;;;;;0.10;0.10;;;;;;;-145.06;100.00;56530.00;10395120;28;20311;-68
2023/09/18 04:05:30;;;;;;;0.10;0.10;;;;;;;-145.06;100.00;56517.84;10387938;28;20036;-68
2023/09/18 04:10:31;;;;;;;0.00;0.00;;;;;;;-145.06;100.00;56499.63;10378329;28;20109;-68
2023/09/18 04:15:31;;;;;;;0.10;0.10;;;;;;;-145.06;100.00;56515.84;10396690;28;20400;-69
2023/09/18 04:20:32;;;;;;;0.10;0.10;;;;;;;-145.06;100.00;56503.69;10387745;28;20018;-69
2023/09/18 04:25:32;;;;;;;0.00;0.00;;;;;;;-145.06;100.00;56505.69;10387347;28;20026;-68
2023/09/18 04:30:33;;;;;;;0.00;0.00;;;;;;;-145.06;100.00;56513.81;10387243;28;20032;-68
2023/09/18 04:35:33;;;;;;;0.10;0.10;;;;;;;-145.06;100.00;56521.91;10395454;28;20120;-68
2023/09/18 04:40:34;;;;;;;0.10;0.10;;;;;;;-145.06;100.00;56501.66;10394390;28;20407;-68
2023/09/18 04:45:35;;;;;;;0.00;0.00;;;;;;;-145.06;100.00;56505.69;10390569;28;20082;-68
2023/09/18 04:50:35;;;;;;;0.00;0.00;;;;;;;-145.06;100.00;56485.44;10399090;28;20025;-68
2023/09/18 04:55:38;;;;;;;0.10;0.10;;;;;;;-145.06;100.00;56473.28;10392899;28;20013;-68
2023/09/18 05:00:38;;;;;;;0.10;0.10;;;;;;;-145.06;100.00;56479.34;10386642;28;20033;-68
2023/09/18 05:05:38;;;;;;;0.10;0.10;;;;;;;-145.06;100.00;56461.13;10380347;28;20025;-69
2023/09/18 05:10:39;;;;;;;0.10;0.10;;;;;;;-145.06;100.00;56412.47;10383940;28;20029;-69
2023/09/18 05:15:39;;;;;;;0.03;0.03;;;;;;;-145.06;100.00;56434.78;10389211;28;20463;-69
2023/09/18 05:20:39;;;;;;;0.10;0.10;;;;;;;-145.06;100.00;56410.47;10377230;28;20109;-69
2023/09/18 05:25:41;;;;;;;0.10;0.10;;;;;;;-145.06;100.00;56465.16;10395567;28;20104;-69
2023/09/18 05:30:42;;;;;;;0.00;0.00;;;;;;;-145.06;100.00;56495.56;10380416;28;20066;-69
2023/09/18 05:35:44;;;;;;;0.10;0.10;;;;;;;-145.06;100.00;56473.28;10383291;28;20021;-69
2023/09/18 05:40:44;;;;;;;0.10;0.10;;;;;;;-145.06;100.00;56521.91;10379970;28;20276;-68
2023/09/18 05:45:45;;;;;;;0.00;0.00;;;;;;;-145.06;100.00;56523.94;10383686;28;20053;-68
2023/09/18 05:50:45;;;;;;;0.10;0.10;;;;;;;-145.06;100.00;56515.84;10388478;28;20029;-68
2023/09/18 05:55:47;;;;;;;0.07;0.07;;;;;;;-145.06;100.00;56505.69;10389780;28;20025;-69
2023/09/18 06:00:47;;;;;;;0.10;0.10;;;;;;;-145.06;100.00;56481.38;10386744;28;20026;-69
2023/09/18 06:05:47;;;;;;;0.10;0.10;;;;;;;-145.06;100.00;56540.16;10384194;28;20026;-69
2023/09/18 06:10:48;;;;;;;0.10;0.10;;;;;;;-145.06;100.00;56720.50;10392280;28;20511;-69
2023/09/18 06:15:48;;;;;;;0.00;0.00;;;;;;;-145.06;100.00;56692.13;10384052;28;20024;-69
2023/09/18 06:20:49;;;;;;;0.10;0.10;;;;;;;-145.06;100.00;56909.00;10371319;28;20503;-69
2023/09/18 06:25:55;;;;;;;0.00;0.00;;;;;;;-145.06;93.43;57138.00;10386035;28;20284;-69
2023/09/18 06:30:56;;;;;;;0.10;0.10;;;;;;;-145.06;94.80;57097.47;10379146;28;20095;-69
2023/09/18 06:35:56;;;;;;;0.00;0.00;;;;;;;-145.06;96.64;57085.31;10389046;28;20531;-69
2023/09/18 06:40:56;;;;;;;0.00;0.00;;;;;;;-145.06;100.00;56967.75;10382256;28;20097;-69
2023/09/18 06:45:57;;;;;;;0.00;0.00;;;;;;;-145.06;100.00;56896.84;10387428;28;20030;-69
2023/09/18 06:50:59;;;;;;;0.00;0.00;;;;;;;-145.06;100.00;56854.28;10389110;28;20635;-69
2023/09/18 06:56:00;;;;;;;0.00;0.00;;;;;;;-145.06;100.00;56902.91;10372599;28;20022;-68
2023/09/18 07:01:00;;;;;;;0.10;0.10;;;;;;;-145.06;100.00;56886.69;10388039;28;20501;-69
2023/09/18 07:06:01;;;;;;;0.00;0.00;;;;;;;-145.06;100.00;56882.66;10383000;28;20476;-68
2023/09/18 07:11:01;;;;;;;0.10;0.10;;;;;;;-145.06;99.84;57038.69;10391910;28;20040;-68
2023/09/18 07:16:03;;;;;;;0.10;0.10;;;;;;;-145.06;98.97;57020.47;10387930;28;20022;-68
2023/09/18 07:21:04;;;;;;;0.10;0.10;;;;;;;-145.06;100.00;56967.75;10387906;28;20476;-69
2023/09/18 07:26:04;;;;;;;0.00;0.00;;;;;;;-145.06;100.00;56921.16;10397650;28;20326;-69
2023/09/18 07:31:09;;;;;;;0.10;0.10;;;;;;;-145.06;97.01;57048.84;10396266;28;20029;-69
2023/09/18 07:36:14;;;;;;;0.00;0.00;;;;;;;-145.06;98.08;57061.00;10402474;28;20013;-68
2023/09/18 07:41:15;;;;;;;0.00;0.00;;;;;;;-145.06;99.01;57077.22;10384900;28;20030;-69
2023/09/18 07:46:15;;;;;;;0.00;0.00;;;;;;;-145.06;100.00;57016.41;10381947;28;20465;-68
2023/09/18 07:51:18;;;;;;;0.00;0.00;;;;;;;-145.06;100.00;56975.88;10389618;28;20026;-68
2023/09/18 07:56:19;;;;;;;0.00;0.00;;;;;;;-145.06;100.00;56947.50;10383938;28;20414;-68
2023/09/18 08:01:22;;;;;;;0.00;0.00;;;;;;;-145.06;100.00;56943.44;10391370;28;20022;-68
2023/09/18 08:06:22;;;;;;;0.05;0.05;;;;;;;-145.06;100.00;56911.03;10386986;28;20081;-68
2023/09/18 08:11:23;;;;;;;0.00;0.00;;;;;;;-145.06;100.00;56913.03;10385936;28;20021;-68
2023/09/18 08:16:23;;;;;;;0.00;0.00;;;;;;;-145.06;100.00;56896.84;10386989;28;20025;-68
2023/09/18 08:21:24;;;;;;;0.10;0.10;;;;;;;-145.06;100.00;56937.38;10397286;28;20079;-67
2023/09/18 08:26:28;;;;;;;0.00;0.00;;;;;;;-145.06;100.00;56870.47;10377390;28;20022;-68
2023/09/18 08:31:29;;;;;;;0.00;0.00;;;;;;;-145.06;100.00;56870.47;10384359;28;20473;-68
2023/09/18 08:36:30;;;;;;;0.10;0.10;;;;;;;-145.06;100.00;56817.78;10383561;28;20029;-68
2023/09/18 08:41:31;;;;;;;0.00;0.00;;;;;;;-145.06;100.00;56801.56;10378454;28;20018;-69
2023/09/18 08:46:34;;;;;;;0.00;0.00;;;;;;;-145.06;100.00;56769.16;10387323;28;20018;-68
2023/09/18 08:51:35;;;;;;;0.10;0.10;;;;;;;-145.06;100.00;56789.41;10387553;28;20403;-68
2023/09/18 08:56:36;;;;;;;0.10;0.10;;;;;;;-145.06;100.00;56744.84;10389017;28;20029;-69
2023/09/18 09:01:36;;;;;;;0.00;0.00;;;;;;;-145.06;100.00;56718.50;10377391;28;20441;-69
2023/09/18 09:06:36;;;;;;;0.00;0.00;;;;;;;-145.06;100.00;56663.78;10386365;28;20033;-71
2023/09/18 09:11:37;;;;;;;0.10;0.10;;;;;;;-145.06;100.00;56684.03;10381964;28;20461;-71
2023/09/18 09:16:39;;;;;;;0.10;0.10;;;;;;;-145.06;100.00;56746.84;10390638;28;20029;-71
2023/09/18 09:21:43;;;;;;;0.00;0.00;;;;;;;-145.06;100.00;56789.41;10383461;28;20040;-70
2023/09/18 09:26:43;;;;;;;0.00;0.00;;;;;;;-145.06;100.00;56787.41;10377895;28;20010;-71
2023/09/18 09:31:45;;;;;;;0.10;0.10;;;;;;;-145.06;100.00;56813.75;10390959;28;20029;-70
2023/09/18 09:36:56;;;;;;;0.00;0.00;;;;;;;-145.06;100.00;56862.38;10378744;28;20018;-70
2023/09/18 09:42:00;;;;;;;0.00;0.00;;;;;;;-145.06;100.00;56923.19;10386731;28;20496;-70
2023/09/18 09:47:00;;;;;;;0.10;0.10;;;;;;;-145.06;100.00;56935.34;10389930;28;20026;-71
2023/09/18 09:52:05;;;;;;;0.00;0.00;;;;;;;-145.06;100.00;56967.75;10385210;28;20026;-70
2023/09/18 09:57:06;;;;;;;0.00;0.00;;;;;;;-145.06;100.00;56945.47;10385031;28;20465;-69
2023/09/18 10:02:09;;;;;;;0.10;0.10;;;;;;;-145.06;100.00;56929.25;10386561;28;20071;-70
2023/09/18 10:07:10;;;;;;;0.00;0.00;;;;;;;-145.06;100.00;56965.75;10391204;28;20013;-70
2023/09/18 10:12:15;;;;;;;0.00;0.00;;;;;;;-145.06;100.00;56945.47;10382552;28;20030;-70
2023/09/18 10:17:17;;;;;;;0.00;0.00;;;;;;;-145.06;100.00;56959.66;10388879;28;20109;-69
2023/09/18 10:22:37;;;;;;;0.00;0.00;;;;;;;-145.06;100.00;56967.75;10390670;28;20041;-70
2023/09/18 10:27:40;;;;;;;0.00;0.00;;;;;;;-145.06;100.00;56951.56;10378921;28;20026;-70
2023/09/18 10:32:41;;;;;;;;;;;;;;;-145.06;100.00;56979.94;10390428;28;20488;-69
2023/09/18 10:37:45;;;;;;;0.00;0.00;;;;;;;-145.06;100.00;57020.47;10393680;28;19944;-70
2023/09/18 10:42:47;;;;;;;0.00;0.00;;;;;;;-145.06;100.00;57093.44;10383639;28;20161;-69
2023/09/18 10:47:49;;;;;;;0.10;0.10;;;;;;;-145.06;100.00;57121.81;10397421;28;20025;-70
2023/09/18 10:52:49;;;;;;;0.00;0.00;;;;;;;-145.06;100.00;57119.78;10388363;28;20030;-69
2023/09/18 10:57:54;;;;;;;0.00;0.00;;;;;;;-145.06;100.00;57259.63;10381207;28;20020;-70
2023/09/18 11:03:12;;;;;;;0.00;0.00;;;;;;;-145.06;100.00;57245.44;10399435;28;20033;-70
2023/09/18 11:08:30;;;;;;;0.00;0.00;;;;;;;-145.06;100.00;57279.91;10387398;28;20113;-69
2023/09/18 11:13:33;;;;;;;0.00;0.00;;;;;;;-145.06;100.00;57267.72;10388094;28;20036;-68
2023/09/18 11:18:34;;;;;;;0.00;0.00;;;;;;;-145.06;100.00;57296.09;10391207;28;20018;-68
2023/09/18 11:23:42;;;;;;;0.10;0.10;;;;;;;-145.06;100.00;57279.91;10386704;28;20485;-68
2023/09/18 11:28:43;;;;;;;0.00;0.00;;;;;;;-145.06;100.00;57267.72;10381859;28;20299;-68
2023/09/18 11:33:44;;;;;;;0.00;0.00;;;;;;;-145.06;100.00;57257.59;10395885;28;20038;-68
2023/09/18 11:38:56;;;;;;;0.10;0.10;;;;;;;-145.06;100.00;57300.16;10390750;28;20026;-68
2023/09/18 11:44:28;;;;;;;0.00;0.00;;;;;;;-145.06;100.00;57257.59;10394742;28;20053;-68
2023/09/18 11:49:30;;;;;;;0.00;0.00;;;;;;;-145.06;100.00;57217.06;10354612;28;20108;-68
2023/09/18 11:54:34;;;;;;;0.00;0.00;;;;;;;-145.06;100.00;57166.38;10397877;28;20115;-69
2023/09/18 11:59:41;;;;;;;0.00;0.00;;;;;;;-145.06;100.00;57156.25;10378468;28;20508;-68
2023/09/18 12:04:41;;;;;;;0.00;0.00;;;;;;;-145.06;100.00;57162.34;10362487;28;20028;-68
2023/09/18 12:09:41;;;;;;;0.10;0.10;;;;;;;-145.06;100.00;57190.72;10375359;28;20030;-68
2023/09/18 12:14:42;;;;;;;0.00;0.00;;;;;;;-145.06;100.00;57267.72;10388874;28;20060;-67
2023/09/18 12:19:55;;;;;;;0.00;0.00;;;;;;;-145.06;100.00;57320.44;10390986;28;20033;-67
2023/09/18 12:25:12;;;;;;;0.00;0.00;;;;;;;-145.06;100.00;57316.38;10384726;28;20271;-67
2023/09/18 12:30:20;;;;;;;0.00;0.00;;;;;;;-145.06;100.00;57411.66;10383887;28;20052;-68
2023/09/18 12:35:20;;;;;;;0.10;0.10;;;;;;;-145.06;100.00;57423.81;10373396;28;20029;-67
2023/09/18 12:40:28;;;;;;;0.00;0.00;;;;;;;-145.06;99.85;57389.34;10404581;28;20116;-68
2023/09/18 12:45:29;;;;;;;0.00;0.00;;;;;;;-145.06;98.05;57521.09;10393305;28;20387;-67
2023/09/18 12:50:30;;;;;;;0.00;0.00;;;;;;;-145.06;94.10;57592.06;10391653;28;20180;-67
2023/09/18 12:55:30;;;;;;;0.00;0.00;;;;;;;-145.06;94.89;57547.44;10395272;28;20427;-67
2023/09/18 13:00:31;;;;;;;0.03;0.03;;;;;;;-145.06;95.09;57567.72;10384635;28;20248;-67
2023/09/18 13:05:34;;;;;;;0.10;0.10;;;;;;;-145.06;92.23;57612.31;10381123;28;20108;-67
2023/09/18 13:10:46;;;;;;;0.00;0.00;;;;;;;-145.06;96.04;57539.34;10390011;28;20147;-67
2023/09/18 13:15:47;;;;;;;0.00;0.00;;;;;;;-145.06;94.93;57486.66;10382384;28;20481;-69
2023/09/18 13:20:47;;;;;;;0.05;0.05;;;;;;;-145.06;95.99;57470.44;10393623;28;20075;-67
2023/09/18 13:25:48;;;;;;;0.10;0.10;;;;;;;-145.06;98.67;57350.84;10381937;28;20044;-69
2023/09/18 13:30:48;;;;;;;0.00;0.00;;;;;;;-145.06;98.39;57338.69;10387564;28;20060;-67
2023/09/18 13:35:49;;;;;;;0.10;0.10;;;;;;;-145.06;99.79;57320.44;10381673;28;20404;-67
2023/09/18 13:40:49;;;;;;;0.00;0.00;;;;;;;-145.06;100.00;57340.69;10394033;28;20052;-67
2023/09/18 13:45:51;;;;;;;0.00;0.00;;;;;;;-145.06;99.01;57320.44;10378147;28;20083;-67
2023/09/18 13:50:52;;;;;;;0.00;0.00;;;;;;;-145.06;100.00;57306.25;10379435;28;20018;-67
2023/09/18 13:55:52;;;;;;;0.03;0.03;;;;;;;-145.06;100.00;57241.38;10387902;28;20024;-68
2023/09/18 14:00:53;;;;;;;0.00;0.00;;;;;;;-145.06;100.00;57247.47;10385644;28;20102;-68
2023/09/18 14:05:53;;;;;;;0.00;0.00;;;;;;;-145.06;100.00;57304.22;10384264;28;20060;-68
2023/09/18 14:10:53;;;;;;;0.00;0.00;;;;;;;-145.06;100.00;57298.13;10401177;28;20112;-68
2023/09/18 14:15:54;;;;;;;0.00;0.00;;;;;;;-145.06;100.00;57324.50;10398591;28;20014;-68
2023/09/18 14:20:54;;;;;;;0.00;0.00;;;;;;;-145.06;100.00;57360.97;10386330;28;20026;-67
2023/09/18 14:25:55;;;;;;;0.00;0.00;;;;;;;-145.06;95.98;57476.50;10382166;28;20050;-68
2023/09/18 14:30:55;;;;;;;0.00;0.00;;;;;;;-145.06;98.20;57444.06;10391518;28;20045;-68
2023/09/18 14:35:55;;;;;;;0.00;0.00;;;;;;;-145.06;96.86;57478.53;10387600;28;20097;-68
2023/09/18 14:41:02;;;;;;;0.00;0.00;;;;;;;-145.06;96.49;57458.25;10386594;28;20061;-68
2023/09/18 14:46:04;;;;;;;0.00;0.00;;;;;;;-145.06;97.80;57395.44;10386398;28;20014;-67
2023/09/18 14:51:06;;;;;;;0.00;0.00;;;;;;;-145.06;99.15;57381.25;10392539;28;20060;-67
2023/09/18 14:56:07;;;;;;;0.00;0.00;;;;;;;-145.06;99.88;57296.09;10398716;28;20086;-67
2023/09/18 15:01:07;;;;;;;0.00;0.00;;;;;;;-145.06;100.00;57328.53;10392754;28;20079;-68
2023/09/18 15:06:08;;;;;;;0.00;0.00;;;;;;;-145.06;100.00;57330.56;10393811;28;20017;-68
2023/09/18 15:11:09;;;;;;;0.00;0.00;;;;;;;-145.06;100.00;57381.25;10387659;28;20091;-67
2023/09/18 15:16:09;;;;;;;0.00;0.00;;;;;;;-145.06;99.19;57356.91;10391349;28;20163;-67
2023/09/18 15:21:10;;;;;;;0.10;0.10;;;;;;;-145.06;99.27;57344.75;10386061;28;20086;-67
2023/09/18 15:26:11;;;;;;;0.00;0.00;;;;;;;-145.06;99.04;57352.88;10394787;28;20021;-67
2023/09/18 15:31:11;;;;;;;0.00;0.00;;;;;;;-145.06;99.21;57316.38;10380861;28;20034;-67
2023/09/18 15:36:12;;;;;;;0.00;0.00;;;;;;;-145.06;100.00;57304.22;10387735;28;20356;-67
2023/09/18 15:41:14;;;;;;;0.00;0.00;;;;;;;-145.06;100.00;57255.56;10395097;28;20025;-68
2023/09/18 15:46:17;;;;;;;0.00;0.00;;;;;;;-145.06;100.00;57255.56;10391280;28;20350;-67
2023/09/18 15:51:18;;;;;;;;;;;;;;;-145.06;100.00;57253.53;10390634;28;20131;-67
2023/09/18 15:56:20;;;;;;;0.00;0.00;;;;;;;-145.06;100.00;57251.53;10387254;28;19920;-67
2023/09/18 16:01:20;;;;;;;0.00;0.00;;;;;;;-145.06;100.00;57213.00;10374661;28;20022;-67
2023/09/18 16:06:21;;;;;;;0.00;0.00;;;;;;;-145.06;100.00;57241.38;10391633;28;20108;-68
2023/09/18 16:11:21;;;;;;;0.10;0.10;;;;;;;-145.06;100.00;57196.78;10384652;28;20517;-68
2023/09/18 16:16:21;;;;;;;0.10;0.10;;;;;;;-145.06;100.00;57235.31;10385833;28;20018;-68
2023/09/18 16:21:21;;;;;;;0.00;0.00;;;;;;;-145.06;100.00;57202.88;10382427;28;20028;-68
2023/09/18 16:26:22;;;;;;;0.00;0.00;;;;;;;-145.06;100.00;57184.63;10386606;28;20104;-68
2023/09/18 16:31:22;;;;;;;0.00;0.00;;;;;;;-145.06;100.00;57150.19;10389925;28;20030;-68
2023/09/18 16:36:22;;;;;;;0.00;0.00;;;;;;;-145.06;100.00;57129.91;10387439;28;20468;-68
2023/09/18 16:41:23;;;;;;;0.00;0.00;;;;;;;-145.06;100.00;57136.00;10390354;28;20040;-69
2023/09/18 16:46:23;;;;;;;0.00;0.00;;;;;;;-145.06;100.00;57119.78;10381397;28;20018;-68
2023/09/18 16:51:23;;;;;;;0.00;0.00;;;;;;;-145.06;100.00;57123.81;10391671;28;20033;-68
2023/09/18 16:56:24;;;;;;;0.00;0.00;;;;;;;-145.06;100.00;57093.44;10386645;28;20504;-68
2023/09/18 17:01:25;;;;;;;0.00;0.00;;;;;;;-145.06;100.00;57085.31;10380274;28;20022;-68
2023/09/18 17:06:27;;;;;;;0.00;0.00;;;;;;;-145.06;100.00;57073.16;10387127;28;20540;-69
2023/09/18 17:11:27;;;;;;;0.00;0.00;;;;;;;-145.06;100.00;57040.72;10382708;28;20359;-68
2023/09/18 17:16:30;;;;;;;0.00;0.00;;;;;;;-145.06;100.00;57097.47;10385921;28;20031;-69
2023/09/18 17:21:31;;;;;;;0.00;0.00;;;;;;;-145.06;100.00;57034.66;10384413;28;20024;-69
2023/09/18 17:26:31;;;;;;;0.00;0.00;;;;;;;-145.06;100.00;57036.69;10392941;28;20037;-68
2023/09/18 17:31:31;;;;;;;0.00;0.00;;;;;;;-145.06;100.00;57048.84;10384366;28;20052;-68
2023/09/18 17:36:32;;;;;;;0.00;0.00;;;;;;;-145.06;100.00;57028.56;10380402;28;20021;-69
2023/09/18 17:41:32;;;;;;;0.00;0.00;;;;;;;-145.06;100.00;57012.34;10383747;28;20039;-69
2023/09/18 17:46:33;;;;;;;0.00;0.00;;;;;;;-145.06;100.00;57012.34;10384014;28;20376;-68
2023/09/18 17:51:34;;;;;;;0.00;0.00;;;;;;;-145.06;100.00;56963.72;10389675;28;20551;-69
2023/09/18 17:56:34;;;;;;;0.00;0.00;;;;;;;-145.06;100.00;57000.19;10387152;28;20068;-69
2023/09/18 18:01:35;;;;;;;0.07;0.07;;;;;;;-145.06;100.00;56973.84;10387902;28;20048;-68
2023/09/18 18:06:35;;;;;;;0.10;0.10;;;;;;;-145.06;100.00;56963.72;10382460;28;20064;-69
2023/09/18 18:11:36;;;;;;;0.00;0.00;;;;;;;-145.06;100.00;56927.22;10391422;28;20033;-68
2023/09/18 18:16:36;;;;;;;0.10;0.10;;;;;;;-145.06;100.00;56906.97;10390253;28;20018;-68
2023/09/18 18:21:37;;;;;;;0.00;0.00;;;;;;;-145.06;100.00;56880.63;10384265;28;20022;-68
2023/09/18 18:26:37;;;;;;;0.00;0.00;;;;;;;-145.06;100.00;56838.06;10374622;28;20022;-70
2023/09/18 18:31:38;;;;;;;0.00;0.00;;;;;;;-145.06;100.00;56862.38;10382494;28;20026;-71
2023/09/18 18:36:39;;;;;;;0.00;0.00;;;;;;;-145.06;100.00;56823.88;10389306;28;20105;-70
2023/09/18 18:41:40;;;;;;;0.00;0.00;;;;;;;-145.06;100.00;56769.16;10393010;28;20108;-70
2023/09/18 18:46:40;;;;;;;0.00;0.00;;;;;;;-145.06;100.00;56748.88;10381822;28;20018;-71
2023/09/18 18:51:41;;;;;;;0.00;0.00;;;;;;;-145.06;100.00;56750.91;10390409;28;20148;-70
2023/09/18 18:56:43;;;;;;;0.00;0.00;;;;;;;-145.06;100.00;56742.81;10394957;28;20052;-70
2023/09/18 19:01:43;;;;;;;0.10;0.10;;;;;;;-145.06;100.00;56728.63;10388922;28;20021;-70
2023/09/18 19:06:44;;;;;;;0.10;0.10;;;;;;;-145.06;100.00;56698.22;10383334;28;20546;-70
2023/09/18 19:11:44;;;;;;;0.10;0.10;;;;;;;-145.06;100.00;56714.44;10390618;28;20396;-69
2023/09/18 19:16:44;;;;;;;0.00;0.00;;;;;;;-145.06;100.00;56718.50;10389540;28;20025;-70
2023/09/18 19:21:45;;;;;;;0.10;0.10;;;;;;;-145.06;100.00;56708.34;10393468;28;20298;-70
2023/09/18 19:26:45;;;;;;;0.00;0.00;;;;;;;-145.06;100.00;56716.47;10384524;28;20152;-70
2023/09/18 19:31:46;;;;;;;0.10;0.10;;;;;;;-145.06;100.00;56700.25;10383937;28;20632;-69
2023/09/18 19:36:50;;;;;;;0.00;0.00;;;;;;;-145.06;100.00;56722.53;10387330;28;20022;-69
2023/09/18 19:41:50;;;;;;;0.10;0.10;;;;;;;-145.06;100.00;56716.47;10391088;28;20017;-69
2023/09/18 19:46:51;;;;;;;0.00;0.00;;;;;;;-145.06;100.00;56714.44;10372720;28;20033;-70
2023/09/18 19:51:51;;;;;;;0.00;0.00;;;;;;;-145.06;100.00;56686.06;10387060;28;20022;-69
2023/09/18 19:56:51;;;;;;;0.00;0.00;;;;;;;-145.06;100.00;56708.34;10389354;28;20490;-68
2023/09/18 20:01:53;;;;;;;0.00;0.00;;;;;;;-145.06;100.00;56714.44;10387184;28;20116;-72
2023/09/18 20:06:53;;;;;;;0.00;0.00;;;;;;;-145.06;100.00;56686.06;10385264;28;20112;-69
2023/09/18 20:11:54;;;;;;;0.00;0.00;;;;;;;-145.06;100.00;56643.50;10387226;28;20084;-69
2023/09/18 20:16:54;;;;;;;0.00;0.00;;;;;;;-145.06;100.00;56637.41;10386799;28;20017;-69
2023/09/18 20:21:55;;;;;;;0.00;0.00;;;;;;;-145.06;100.00;56619.19;10394042;28;20505;-70
2023/09/18 20:26:55;;;;;;;0.00;0.00;;;;;;;-145.06;100.00;56619.19;10391748;28;20451;-70
2023/09/18 20:31:55;;;;;;;0.00;0.00;;;;;;;-145.06;100.00;56627.28;10390775;28;20100;-70
2023/09/18 20:36:56;;;;;;;0.07;0.07;;;;;;;-145.06;100.00;56582.72;10393164;28;20378;-69
2023/09/18 20:41:57;;;;;;;0.03;0.03;;;;;;;-145.06;100.00;56607.03;10389144;28;20025;-69
2023/09/18 20:46:57;;;;;;;0.00;0.00;;;;;;;-145.06;100.00;56576.63;10391964;28;20028;-69
2023/09/18 20:51:58;;;;;;;0.10;0.10;;;;;;;-145.06;100.00;56598.91;10389392;28;20037;-69
2023/09/18 20:56:58;;;;;;;0.10;0.10;;;;;;;-145.06;100.00;56562.44;10390806;28;20021;-68
2023/09/18 21:01:58;;;;;;;0.00;0.00;;;;;;;-145.06;100.00;56564.47;10390466;28;20031;-69
2023/09/18 21:07:00;;;;;;;0.10;0.10;;;;;;;-145.06;100.00;56546.22;10391418;28;20380;-69
2023/09/18 21:12:02;;;;;;;0.10;0.10;;;;;;;-145.06;100.00;56548.25;10390834;28;20052;-69
2023/09/18 21:17:03;;;;;;;0.00;0.00;;;;;;;-145.06;100.00;56530.00;10390201;28;20028;-69
2023/09/18 21:22:03;;;;;;;0.00;0.00;;;;;;;-145.06;100.00;56556.38;10392107;28;20036;-69
2023/09/18 21:27:04;;;;;;;0.10;0.10;;;;;;;-145.06;100.00;56542.19;10390403;28;20491;-68
2023/09/18 21:32:05;;;;;;;0.10;0.10;;;;;;;-145.06;100.00;56501.66;10391349;28;20026;-69
2023/09/18 21:37:05;;;;;;;0.10;0.10;;;;;;;-145.06;100.00;56538.13;10392343;28;20024;-68
2023/09/18 21:42:06;;;;;;;0.10;0.10;;;;;;;-145.06;100.00;56530.00;10389362;28;20417;-69
2023/09/18 21:47:10;;;;;;;0.10;0.10;;;;;;;-145.06;100.00;56511.78;10391378;28;20104;-70
2023/09/18 21:52:13;;;;;;;0.00;0.00;;;;;;;-145.06;100.00;56538.13;10391573;28;20027;-69
2023/09/18 21:57:14;;;;;;;0.00;0.00;;;;;;;-145.06;100.00;56544.19;10392667;28;20113;-71
2023/09/18 22:02:14;;;;;;;0.10;0.10;;;;;;;-145.06;100.00;56521.91;10387197;28;20101;-71
2023/09/18 22:07:15;;;;;;;0.10;0.10;;;;;;;-145.06;100.00;56554.34;10391304;28;20041;-72
2023/09/18 22:12:15;;;;;;;0.10;0.10;;;;;;;-145.06;100.00;56550.28;10392150;28;20033;-70
2023/09/18 22:17:16;;;;;;;0.00;0.00;;;;;;;-145.06;100.00;56493.53;10391772;28;20028;-70
2023/09/18 22:22:16;;;;;;;0.10;0.10;;;;;;;-145.06;100.00;56532.03;10393054;28;20071;-69
2023/09/18 22:27:17;;;;;;;0.10;0.10;;;;;;;-145.06;100.00;56534.06;10394183;28;20009;-70
2023/09/18 22:32:22;;;;;;;0.10;0.10;;;;;;;-145.06;100.00;56538.13;10394743;28;20089;-69
2023/09/18 22:37:23;;;;;;;0.10;0.10;;;;;;;-145.06;100.00;56558.38;10395790;28;20086;-71